Time;durP1;ratioP1;P1;durP2;ratioP2;P2;SDS_P1;SDS_P2;PMS_P1;PMS_P2;Temp;Humidity;BMP_temperature;BMP_pressure;BME280_temperature;BME280_humidity;BME280_pressure;Samples;Min_cycle;Max_cycle;Signal;HPM_P1;HPM_P2
2024/02/06 00:00:45;;;;;;;13.20;5.07;;;9.20;99.90;;;;;;2003954;29;20045;-74
2024/02/06 00:01:49;;;;;;;16.65;5.82;;;9.20;99.90;;;;;;2006075;29;20072;-72
2024/02/06 00:02:49;;;;;;;19.10;5.53;;;9.10;99.90;;;;;;2013498;29;20590;-75
2024/02/06 00:03:50;;;;;;;15.60;5.45;;;9.20;99.90;;;;;;2010496;29;20067;-74
2024/02/06 00:04:51;;;;;;;18.77;5.53;;;9.10;99.90;;;;;;2014502;29;20045;-74
2024/02/06 00:05:51;;;;;;;18.92;5.47;;;9.20;99.90;;;;;;2007784;29;20065;-74
2024/02/06 00:06:52;;;;;;;22.13;5.97;;;9.20;99.90;;;;;;2009341;29;20033;-73
2024/02/06 00:07:52;;;;;;;19.98;5.60;;;9.20;99.90;;;;;;2004427;29;20523;-75
2024/02/06 00:08:53;;;;;;;14.40;5.53;;;9.20;99.90;;;;;;2012311;29;20040;-75
2024/02/06 00:09:54;;;;;;;17.83;5.35;;;9.10;99.90;;;;;;2012153;29;20021;-74
2024/02/06 00:10:54;;;;;;;17.45;5.30;;;9.10;99.90;;;;;;2012057;29;20185;-74
2024/02/06 00:11:55;;;;;;;15.90;5.53;;;9.10;99.90;;;;;;2012584;29;20021;-74
2024/02/06 00:12:55;;;;;;;14.55;5.50;;;9.10;99.90;;;;;;2009372;29;20036;-75
2024/02/06 00:13:56;;;;;;;17.92;5.32;;;9.10;99.90;;;;;;2009232;29;20029;-75
2024/02/06 00:14:57;;;;;;;17.13;5.80;;;9.10;99.90;;;;;;2008916;29;20045;-76
2024/02/06 00:15:59;;;;;;;14.98;5.50;;;9.10;99.90;;;;;;2007474;29;20025;-74
2024/02/06 00:16:59;;;;;;;17.10;5.70;;;9.10;99.90;;;;;;2009073;29;20334;-74
2024/02/06 00:18:00;;;;;;;16.52;5.45;;;9.10;99.90;;;;;;2008211;29;20041;-73
2024/02/06 00:19:01;;;;;;;15.70;5.63;;;9.10;99.90;;;;;;2005800;29;20041;-74
2024/02/06 00:20:03;;;;;;;15.48;5.30;;;9.10;99.90;;;;;;2006619;29;20463;-75
2024/02/06 00:21:03;;;;;;;15.40;5.40;;;9.00;99.90;;;;;;2005646;29;20033;-75
2024/02/06 00:22:04;;;;;;;14.05;5.50;;;9.00;99.90;;;;;;2010616;29;20403;-77
2024/02/06 00:23:05;;;;;;;19.23;5.47;;;9.00;99.90;;;;;;2008801;29;20053;-74
2024/02/06 00:24:05;;;;;;;15.55;5.85;;;9.00;99.90;;;;;;2010216;29;20039;-76
2024/02/06 00:25:06;;;;;;;15.02;5.50;;;9.00;99.90;;;;;;2006514;29;20044;-75
2024/02/06 00:26:07;;;;;;;15.80;5.68;;;9.00;99.90;;;;;;2010082;29;20033;-73
2024/02/06 00:27:08;;;;;;;15.82;5.88;;;9.00;99.90;;;;;;2010766;29;20387;-77
2024/02/06 00:28:08;;;;;;;15.95;5.70;;;9.00;99.90;;;;;;2009706;29;20055;-76
2024/02/06 00:29:09;;;;;;;17.90;5.88;;;9.00;99.90;;;;;;2003410;29;20037;-75
2024/02/06 00:30:10;;;;;;;17.42;5.80;;;9.00;99.90;;;;;;2008973;29;20053;-75
2024/02/06 00:31:10;;;;;;;16.17;5.65;;;9.00;99.90;;;;;;2010527;29;20049;-74
2024/02/06 00:32:11;;;;;;;18.70;5.63;;;9.00;99.90;;;;;;2011612;29;20413;-76
2024/02/06 00:33:12;;;;;;;14.48;5.90;;;8.90;99.90;;;;;;2009754;29;20549;-74
2024/02/06 00:34:12;;;;;;;15.55;5.50;;;8.90;99.90;;;;;;2009774;29;20058;-71
2024/02/06 00:35:13;;;;;;;15.43;5.40;;;8.90;99.90;;;;;;2011740;29;20037;-71
2024/02/06 00:36:13;;;;;;;14.25;5.97;;;8.90;99.90;;;;;;2010318;29;20025;-72
2024/02/06 00:37:16;;;;;;;15.95;5.65;;;8.90;99.90;;;;;;2009470;29;20029;-71
2024/02/06 00:38:17;;;;;;;19.48;6.03;;;9.00;99.90;;;;;;2009638;29;20600;-78
2024/02/06 00:39:18;;;;;;;18.85;5.75;;;9.00;99.90;;;;;;2003807;29;20041;-77
2024/02/06 00:40:18;;;;;;;18.85;5.95;;;9.00;99.90;;;;;;2003908;29;20054;-79
2024/02/06 00:41:19;;;;;;;16.65;5.80;;;9.00;99.90;;;;;;2010203;29;20034;-78
2024/02/06 00:42:19;;;;;;;16.52;5.53;;;9.00;99.90;;;;;;2011333;29;20033;-79
2024/02/06 00:43:22;;;;;;;17.13;5.28;;;8.90;99.90;;;;;;1994351;29;20066;-77
2024/02/06 00:44:23;;;;;;;17.92;6.13;;;8.90;99.90;;;;;;2006137;29;20682;-78
2024/02/06 00:45:23;;;;;;;17.42;5.38;;;8.90;99.90;;;;;;2011037;29;20033;-78
2024/02/06 00:46:25;;;;;;;14.65;5.47;;;8.90;99.90;;;;;;2011807;29;20065;-77
2024/02/06 00:47:25;;;;;;;18.80;6.07;;;8.90;99.90;;;;;;2006849;29;20624;-79
2024/02/06 00:48:26;;;;;;;15.63;5.47;;;8.90;99.90;;;;;;2003377;29;20041;-78
2024/02/06 00:49:26;;;;;;;12.90;5.20;;;8.90;99.90;;;;;;2011614;29;20040;-77
2024/02/06 00:50:27;;;;;;;15.25;5.75;;;8.90;99.90;;;;;;2009602;29;20037;-77
2024/02/06 00:51:28;;;;;;;13.85;5.32;;;8.90;99.90;;;;;;2009051;29;20025;-75
2024/02/06 00:52:28;;;;;;;17.52;5.90;;;8.90;99.90;;;;;;2011058;29;20105;-80
2024/02/06 00:53:29;;;;;;;14.38;5.72;;;8.90;99.90;;;;;;2008126;29;20052;-76
2024/02/06 00:54:29;;;;;;;14.60;5.43;;;8.90;99.90;;;;;;2009674;29;20029;-78
2024/02/06 00:55:31;;;;;;;15.80;6.10;;;8.90;99.90;;;;;;2007801;29;20579;-79
2024/02/06 00:56:31;;;;;;;14.05;5.68;;;8.90;99.90;;;;;;2009189;29;20028;-77
2024/02/06 00:57:32;;;;;;;17.60;5.88;;;8.90;99.90;;;;;;2010907;29;20041;-78
2024/02/06 00:58:32;;;;;;;16.98;5.82;;;8.90;99.90;;;;;;2011869;29;20029;-77
2024/02/06 00:59:33;;;;;;;15.88;5.78;;;8.90;99.90;;;;;;2010245;29;20081;-77
2024/02/06 01:00:35;;;;;;;13.02;5.93;;;8.80;99.90;;;;;;2012484;29;20029;-78
2024/02/06 01:01:36;;;;;;;16.02;6.32;;;8.80;99.90;;;;;;2014317;29;20028;-78
2024/02/06 01:02:36;;;;;;;17.00;5.55;;;8.80;99.90;;;;;;2008312;29;20085;-77
2024/02/06 01:03:38;;;;;;;13.15;5.63;;;8.80;99.90;;;;;;2003936;29;20030;-76
2024/02/06 01:04:38;;;;;;;16.58;6.00;;;8.80;99.90;;;;;;2007943;29;20060;-77
2024/02/06 01:05:39;;;;;;;15.60;5.50;;;8.80;99.90;;;;;;2007689;29;20437;-77
2024/02/06 01:06:40;;;;;;;17.30;6.30;;;8.80;99.90;;;;;;2008488;29;20508;-77
2024/02/06 01:07:40;;;;;;;15.45;5.25;;;8.90;99.90;;;;;;2007124;29;20029;-78
2024/02/06 01:08:41;;;;;;;17.20;5.80;;;8.80;99.90;;;;;;2006330;29;20053;-78
2024/02/06 01:09:41;;;;;;;17.80;5.50;;;8.80;99.90;;;;;;2006632;29;20041;-78
2024/02/06 01:10:42;;;;;;;12.85;5.63;;;8.80;99.90;;;;;;2005122;29;20555;-78
2024/02/06 01:11:42;;;;;;;15.25;5.72;;;8.80;99.90;;;;;;2005901;29;20022;-78
2024/02/06 01:12:43;;;;;;;21.88;6.43;;;8.80;99.90;;;;;;2007861;29;20107;-77
2024/02/06 01:13:43;;;;;;;17.48;5.60;;;8.80;99.90;;;;;;2007833;29;20030;-78
2024/02/06 01:14:44;;;;;;;14.82;5.40;;;8.90;99.90;;;;;;2009747;29;20888;-77
2024/02/06 01:15:44;;;;;;;19.40;5.88;;;8.80;99.90;;;;;;2006206;29;20045;-78
2024/02/06 01:16:45;;;;;;;15.75;6.13;;;8.80;99.90;;;;;;2008008;29;20037;-77
2024/02/06 01:17:45;;;;;;;17.23;5.97;;;8.80;99.90;;;;;;2009654;29;20059;-78
2024/02/06 01:18:46;;;;;;;16.67;5.88;;;8.80;99.90;;;;;;2002954;29;20029;-78
2024/02/06 01:19:46;;;;;;;16.65;6.18;;;8.80;99.90;;;;;;2010186;29;20033;-77
2024/02/06 01:20:47;;;;;;;15.55;5.68;;;8.80;99.90;;;;;;2018227;29;20648;-79
2024/02/06 01:21:47;;;;;;;17.58;6.18;;;8.80;99.90;;;;;;2011821;29;20029;-78
2024/02/06 01:22:48;;;;;;;15.85;6.13;;;8.80;99.90;;;;;;2012083;29;20484;-78
2024/02/06 01:23:49;;;;;;;19.13;6.30;;;8.80;99.90;;;;;;2011265;29;20029;-77
2024/02/06 01:24:49;;;;;;;15.85;6.10;;;8.80;99.90;;;;;;2008120;29;20037;-77
2024/02/06 01:25:50;;;;;;;17.38;6.10;;;8.70;99.90;;;;;;2007368;29;20033;-77
2024/02/06 01:26:50;;;;;;;23.13;6.40;;;8.80;99.90;;;;;;2008098;29;20802;-77
2024/02/06 01:27:51;;;;;;;19.98;6.30;;;8.80;99.90;;;;;;1991147;29;20034;-77
2024/02/06 01:28:52;;;;;;;18.15;6.43;;;8.70;99.90;;;;;;2001665;29;20057;-77
2024/02/06 01:29:52;;;;;;;16.60;6.13;;;8.80;99.90;;;;;;2010380;29;20025;-77
2024/02/06 01:30:53;;;;;;;16.05;5.63;;;8.70;99.90;;;;;;2006905;29;20024;-77
2024/02/06 01:31:53;;;;;;;17.58;5.97;;;8.70;99.90;;;;;;2006114;29;20034;-78
2024/02/06 01:32:54;;;;;;;16.63;6.43;;;8.70;99.90;;;;;;2008134;29;20041;-77
2024/02/06 01:33:54;;;;;;;17.75;6.15;;;8.70;99.90;;;;;;2004914;29;20041;-77
2024/02/06 01:34:56;;;;;;;19.42;6.60;;;8.70;99.90;;;;;;2004959;29;20089;-77
2024/02/06 01:35:56;;;;;;;17.88;6.03;;;8.80;99.90;;;;;;2005009;29;20408;-77
2024/02/06 01:36:57;;;;;;;15.98;6.00;;;8.70;99.90;;;;;;2006761;29;20794;-78
2024/02/06 01:37:57;;;;;;;21.70;6.43;;;8.70;99.90;;;;;;2006405;29;20040;-77
2024/02/06 01:38:58;;;;;;;17.50;6.47;;;8.70;99.90;;;;;;2011434;29;20032;-77
2024/02/06 01:39:58;;;;;;;13.32;6.38;;;8.70;99.90;;;;;;2009525;29;20484;-78
2024/02/06 01:40:59;;;;;;;20.52;6.40;;;8.80;99.90;;;;;;2005925;29;20187;-79
2024/02/06 01:42:03;;;;;;;23.33;6.70;;;8.80;99.90;;;;;;2006590;29;20119;-76
2024/02/06 01:43:03;;;;;;;16.63;6.50;;;8.80;99.90;;;;;;2004822;29;20041;-78
2024/02/06 01:44:05;;;;;;;18.42;6.70;;;8.80;99.90;;;;;;2007504;29;20140;-76
2024/02/06 01:45:06;;;;;;;16.35;6.18;;;8.80;99.90;;;;;;2005598;29;20081;-76
2024/02/06 01:46:06;;;;;;;19.40;6.55;;;8.80;99.90;;;;;;2008534;29;20564;-78
2024/02/06 01:47:08;;;;;;;19.48;6.72;;;8.80;99.90;;;;;;2005145;29;20048;-77
2024/02/06 01:48:11;;;;;;;17.00;6.07;;;8.70;99.90;;;;;;2011407;29;20097;-76
2024/02/06 01:49:11;;;;;;;20.08;6.55;;;8.80;99.90;;;;;;2007724;29;20116;-78
2024/02/06 01:50:13;;;;;;;18.05;6.50;;;8.70;99.90;;;;;;2008556;29;20093;-75
2024/02/06 01:51:16;;;;;;;17.40;6.78;;;8.80;99.90;;;;;;2011310;29;20022;-77
2024/02/06 01:52:17;;;;;;;16.83;6.70;;;8.80;99.90;;;;;;2003752;29;20034;-78
2024/02/06 01:53:19;;;;;;;19.38;6.43;;;8.80;99.90;;;;;;2001362;29;20424;-77
2024/02/06 01:54:20;;;;;;;14.48;6.28;;;8.80;99.90;;;;;;2004545;29;20439;-78
2024/02/06 01:55:20;;;;;;;16.25;6.57;;;8.70;99.90;;;;;;2011750;29;20120;-78
2024/02/06 01:56:21;;;;;;;13.73;6.55;;;8.70;99.90;;;;;;2008030;29;20018;-78
2024/02/06 01:57:21;;;;;;;17.25;6.80;;;8.80;99.90;;;;;;2004111;29;20064;-77
2024/02/06 01:58:23;;;;;;;16.48;6.30;;;8.70;99.90;;;;;;2012202;29;20057;-79
2024/02/06 01:59:24;;;;;;;15.20;6.55;;;8.70;99.90;;;;;;2007531;29;20036;-78
2024/02/06 02:00:25;;;;;;;17.92;6.43;;;8.70;99.90;;;;;;2008239;29;20029;-78
2024/02/06 02:01:26;;;;;;;17.65;6.60;;;8.70;99.90;;;;;;2005922;29;20573;-77
2024/02/06 02:02:27;;;;;;;21.25;6.60;;;8.70;99.90;;;;;;2008176;29;20040;-78
2024/02/06 02:03:28;;;;;;;18.42;6.50;;;8.70;99.90;;;;;;2008860;29;20064;-79
2024/02/06 02:04:28;;;;;;;23.08;7.00;;;8.70;99.90;;;;;;2006950;29;20369;-78
2024/02/06 02:05:31;;;;;;;19.10;6.88;;;8.70;99.90;;;;;;2007996;29;20022;-77
2024/02/06 02:06:31;;;;;;;16.40;6.50;;;8.70;99.90;;;;;;2007589;29;20034;-78
2024/02/06 02:07:34;;;;;;;18.40;6.55;;;8.70;99.90;;;;;;2009515;29;20488;-76
2024/02/06 02:08:35;;;;;;;17.90;6.55;;;8.70;99.90;;;;;;2006520;29;20145;-76
2024/02/06 02:09:35;;;;;;;18.77;6.85;;;8.70;99.90;;;;;;2009828;29;20475;-77
2024/02/06 02:10:36;;;;;;;19.55;6.43;;;8.70;99.90;;;;;;2008198;29;20077;-78
2024/02/06 02:11:37;;;;;;;16.88;6.63;;;8.70;99.90;;;;;;2007361;29;20026;-77
2024/02/06 02:12:38;;;;;;;17.55;7.20;;;8.70;99.90;;;;;;2006066;29;20116;-76
2024/02/06 02:13:39;;;;;;;17.88;7.00;;;8.60;99.90;;;;;;2004672;29;20025;-77
2024/02/06 02:14:39;;;;;;;20.70;7.20;;;8.60;99.90;;;;;;2004487;29;20029;-78
2024/02/06 02:15:40;;;;;;;18.30;6.68;;;8.60;99.90;;;;;;2004534;29;20056;-76
2024/02/06 02:16:40;;;;;;;22.40;7.00;;;8.60;99.90;;;;;;2008342;29;20739;-77
2024/02/06 02:17:41;;;;;;;16.05;6.95;;;8.60;99.90;;;;;;2012320;29;20140;-77
2024/02/06 02:18:41;;;;;;;15.88;6.68;;;8.60;99.90;;;;;;2007759;29;20506;-79
2024/02/06 02:19:42;;;;;;;15.38;6.38;;;8.60;99.90;;;;;;2009667;29;20092;-77
2024/02/06 02:20:42;;;;;;;13.75;6.50;;;8.60;99.90;;;;;;2001131;29;20052;-77
2024/02/06 02:21:43;;;;;;;18.60;6.30;;;8.60;99.90;;;;;;2010124;29;20049;-77
2024/02/06 02:22:43;;;;;;;16.73;6.60;;;8.60;99.90;;;;;;2008590;29;20047;-77
2024/02/06 02:23:45;;;;;;;15.43;6.60;;;8.60;99.90;;;;;;2012113;29;20029;-78
2024/02/06 02:24:45;;;;;;;18.45;6.80;;;8.50;99.90;;;;;;2005227;29;20090;-78
2024/02/06 02:25:46;;;;;;;17.73;6.88;;;8.60;99.90;;;;;;2003907;29;20101;-78
2024/02/06 02:26:47;;;;;;;16.40;6.20;;;8.60;99.90;;;;;;2004510;29;20034;-77
2024/02/06 02:27:48;;;;;;;17.27;6.35;;;8.60;99.90;;;;;;2007599;29;20053;-78
2024/02/06 02:28:50;;;;;;;16.67;6.78;;;8.60;99.90;;;;;;2003402;29;20101;-77
2024/02/06 02:29:53;;;;;;;22.45;7.32;;;8.60;99.90;;;;;;2003570;29;20037;-70
2024/02/06 02:30:55;;;;;;;16.23;6.43;;;8.60;99.90;;;;;;1996411;29;20437;-71
2024/02/06 02:31:55;;;;;;;19.73;7.13;;;8.60;99.90;;;;;;1996040;29;20140;-71
2024/02/06 02:32:56;;;;;;;20.65;7.13;;;8.60;99.90;;;;;;2003908;29;20057;-71
2024/02/06 02:33:57;;;;;;;18.95;7.03;;;8.60;99.90;;;;;;2003540;29;20029;-70
2024/02/06 02:34:59;;;;;;;20.45;7.40;;;8.60;99.90;;;;;;2011281;29;20543;-71
2024/02/06 02:35:59;;;;;;;16.30;7.13;;;8.60;99.90;;;;;;2011498;29;20036;-71
2024/02/06 02:37:00;;;;;;;19.30;7.00;;;8.60;99.90;;;;;;2007228;29;20055;-70
2024/02/06 02:38:01;;;;;;;18.38;6.93;;;8.60;99.90;;;;;;2003684;29;20065;-71
2024/02/06 02:39:01;;;;;;;21.17;7.50;;;8.50;99.90;;;;;;2004530;29;20143;-71
2024/02/06 02:40:02;;;;;;;20.02;7.18;;;8.50;99.90;;;;;;2003674;29;20029;-71
2024/02/06 02:41:02;;;;;;;17.50;6.93;;;8.50;99.90;;;;;;2004299;29;20150;-71
2024/02/06 02:42:04;;;;;;;18.25;7.45;;;8.50;99.90;;;;;;2003456;29;20117;-71
2024/02/06 02:43:04;;;;;;;16.70;7.22;;;8.50;99.90;;;;;;2000737;29;20109;-71
2024/02/06 02:44:06;;;;;;;19.70;7.38;;;8.50;99.90;;;;;;1988405;29;20134;-70
2024/02/06 02:45:06;;;;;;;16.73;7.00;;;8.50;99.90;;;;;;2001230;29;20033;-70
2024/02/06 02:46:07;;;;;;;17.48;7.10;;;8.50;99.90;;;;;;2010434;29;20125;-70
2024/02/06 02:47:07;;;;;;;19.75;7.40;;;8.50;99.90;;;;;;2005416;29;20057;-70
2024/02/06 02:48:08;;;;;;;18.75;7.35;;;8.50;99.90;;;;;;2006024;29;20036;-71
2024/02/06 02:49:09;;;;;;;18.95;7.05;;;8.50;99.90;;;;;;2007646;29;20036;-70
2024/02/06 02:50:09;;;;;;;18.48;7.03;;;8.50;99.90;;;;;;2011287;29;20041;-69
2024/02/06 02:51:10;;;;;;;21.02;7.55;;;8.50;99.90;;;;;;2011342;29;20350;-71
2024/02/06 02:52:10;;;;;;;15.48;7.40;;;8.50;99.90;;;;;;2007321;29;20116;-72
2024/02/06 02:53:11;;;;;;;20.40;7.85;;;8.50;99.90;;;;;;2001706;29;20056;-71
2024/02/06 02:54:11;;;;;;;19.85;7.13;;;8.50;99.90;;;;;;2006194;29;20036;-71
2024/02/06 02:55:12;;;;;;;18.10;7.25;;;8.50;99.90;;;;;;2005550;29;20165;-70
2024/02/06 02:56:13;;;;;;;17.15;7.40;;;8.50;99.90;;;;;;2010804;29;20037;-70
2024/02/06 02:57:14;;;;;;;18.60;7.38;;;8.50;99.90;;;;;;2005734;29;20022;-69
2024/02/06 02:58:14;;;;;;;20.08;7.47;;;8.50;99.90;;;;;;2006563;29;20045;-70
2024/02/06 02:59:15;;;;;;;19.27;7.63;;;8.50;99.90;;;;;;2008180;29;20055;-71
2024/02/06 03:00:16;;;;;;;21.92;7.82;;;8.50;99.90;;;;;;2006059;29;20618;-71
2024/02/06 03:01:16;;;;;;;18.05;7.35;;;8.50;99.90;;;;;;2003964;29;20733;-71
2024/02/06 03:02:17;;;;;;;16.73;7.70;;;8.50;99.90;;;;;;2007563;29;20033;-71
2024/02/06 03:03:17;;;;;;;20.13;7.63;;;8.50;99.90;;;;;;2001631;29;20052;-71
2024/02/06 03:04:18;;;;;;;17.40;7.40;;;8.50;99.90;;;;;;2003449;29;20040;-70
2024/02/06 03:05:19;;;;;;;21.27;7.35;;;8.50;99.90;;;;;;2008110;29;20543;-71
2024/02/06 03:06:20;;;;;;;18.05;7.53;;;8.50;99.90;;;;;;2005995;29;20033;-69
2024/02/06 03:07:20;;;;;;;20.20;7.45;;;8.50;99.90;;;;;;2008058;29;20040;-71
2024/02/06 03:08:21;;;;;;;21.38;8.05;;;8.50;99.90;;;;;;2006748;29;20564;-71
2024/02/06 03:09:21;;;;;;;18.20;7.40;;;8.50;99.90;;;;;;2011246;29;20125;-71
2024/02/06 03:10:22;;;;;;;15.85;7.78;;;8.50;99.90;;;;;;2005416;29;20041;-71
2024/02/06 03:11:23;;;;;;;19.45;7.75;;;8.50;99.90;;;;;;2007814;29;20033;-72
2024/02/06 03:12:31;;;;;;;20.20;7.57;;;8.50;99.90;;;;;;2008518;29;20033;-70
2024/02/06 03:13:31;;;;;;;21.00;7.45;;;8.50;99.90;;;;;;2007325;29;20057;-70
2024/02/06 03:14:32;;;;;;;17.65;7.53;;;8.50;99.90;;;;;;2007228;29;20410;-71
2024/02/06 03:15:32;;;;;;;17.23;8.00;;;8.50;99.90;;;;;;2018241;29;20079;-70
2024/02/06 03:16:34;;;;;;;16.42;7.13;;;8.50;99.90;;;;;;2006543;29;20034;-70
2024/02/06 03:17:34;;;;;;;16.65;7.07;;;8.50;99.90;;;;;;2010496;29;20034;-70
2024/02/06 03:18:35;;;;;;;16.08;7.35;;;8.50;99.90;;;;;;2005406;29;20057;-71
2024/02/06 03:19:36;;;;;;;22.83;7.65;;;8.60;99.90;;;;;;1996701;29;20090;-71
2024/02/06 03:20:36;;;;;;;22.63;7.80;;;8.50;99.90;;;;;;1994924;29;20029;-69
2024/02/06 03:21:37;;;;;;;19.65;7.88;;;8.50;99.90;;;;;;2002786;29;20037;-71
2024/02/06 03:22:37;;;;;;;20.67;7.72;;;8.60;99.90;;;;;;2003324;29;20148;-70
2024/02/06 03:23:38;;;;;;;18.02;7.32;;;8.50;99.90;;;;;;1995710;29;20030;-70
2024/02/06 03:24:38;;;;;;;16.40;7.15;;;8.60;99.90;;;;;;2003335;29;20022;-69
2024/02/06 03:25:39;;;;;;;17.95;7.15;;;8.60;99.90;;;;;;2010865;29;20051;-70
2024/02/06 03:26:39;;;;;;;18.00;7.70;;;8.60;99.90;;;;;;1996375;29;20041;-71
2024/02/06 03:27:43;;;;;;;16.23;7.22;;;8.60;99.90;;;;;;1999281;29;20030;-70
2024/02/06 03:28:43;;;;;;;16.60;7.10;;;8.60;99.90;;;;;;1996082;29;20046;-70
2024/02/06 03:29:44;;;;;;;21.48;7.40;;;8.50;99.90;;;;;;2004096;29;20018;-71
2024/02/06 03:30:45;;;;;;;17.55;7.43;;;8.50;99.90;;;;;;2013359;29;20072;-71
2024/02/06 03:31:45;;;;;;;20.85;7.85;;;8.50;99.90;;;;;;2003590;29;20093;-72
2024/02/06 03:32:47;;;;;;;20.27;7.30;;;8.50;99.90;;;;;;2001446;29;20029;-70
2024/02/06 03:33:47;;;;;;;17.35;7.30;;;8.50;99.90;;;;;;2004105;29;20029;-70
2024/02/06 03:34:48;;;;;;;18.92;7.30;;;8.60;99.90;;;;;;2018074;29;20042;-70
2024/02/06 03:35:49;;;;;;;19.17;6.80;;;8.60;99.90;;;;;;2010881;29;20390;-70
2024/02/06 03:36:49;;;;;;;19.10;6.60;;;8.60;99.90;;;;;;2003905;29;20077;-71
2024/02/06 03:37:50;;;;;;;17.27;7.20;;;8.60;99.90;;;;;;2003952;29;20613;-71
2024/02/06 03:38:50;;;;;;;15.48;6.75;;;8.60;99.90;;;;;;2007697;29;20061;-71
2024/02/06 03:39:51;;;;;;;14.73;7.18;;;8.60;99.90;;;;;;2003858;29;20037;-70
2024/02/06 03:40:51;;;;;;;17.13;7.10;;;8.60;99.90;;;;;;2003740;29;20030;-72
2024/02/06 03:41:52;;;;;;;12.48;6.80;;;8.60;99.90;;;;;;2011202;29;20032;-71
2024/02/06 03:42:52;;;;;;;16.83;6.88;;;8.60;99.90;;;;;;2005034;29;20048;-70
2024/02/06 03:43:53;;;;;;;17.30;6.93;;;8.60;99.90;;;;;;2009980;29;20360;-70
2024/02/06 03:44:54;;;;;;;14.80;6.55;;;8.60;99.90;;;;;;2011369;29;20044;-71
2024/02/06 03:45:54;;;;;;;19.17;7.15;;;8.50;99.90;;;;;;2001037;29;20038;-71
2024/02/06 03:46:55;;;;;;;16.30;6.95;;;8.60;99.90;;;;;;2006070;29;20038;-72
2024/02/06 03:47:56;;;;;;;15.70;6.47;;;8.60;99.90;;;;;;2011544;29;20036;-70
2024/02/06 03:48:59;;;;;;;16.73;6.80;;;8.60;99.90;;;;;;2012248;29;20120;-71
2024/02/06 03:50:00;;;;;;;16.85;6.95;;;8.60;99.90;;;;;;2010860;29;20033;-71
2024/02/06 03:51:04;;;;;;;17.27;6.88;;;8.60;99.90;;;;;;2005632;29;20068;-71
2024/02/06 03:52:05;;;;;;;13.70;6.18;;;8.60;99.90;;;;;;2008581;29;20026;-70
2024/02/06 03:53:05;;;;;;;17.73;6.88;;;8.60;99.90;;;;;;2010995;29;20079;-70
2024/02/06 03:54:06;;;;;;;16.15;6.68;;;8.60;99.90;;;;;;2014675;29;20036;-70
2024/02/06 03:55:07;;;;;;;18.67;6.88;;;8.60;99.90;;;;;;2007628;29;20033;-71
2024/02/06 03:56:08;;;;;;;19.88;6.35;;;8.60;99.90;;;;;;2011109;29;20036;-71
2024/02/06 03:57:09;;;;;;;15.98;7.20;;;8.60;99.90;;;;;;2007352;29;20037;-71
2024/02/06 03:58:10;;;;;;;16.50;6.63;;;8.50;99.90;;;;;;2010163;29;20116;-71
2024/02/06 03:59:10;;;;;;;19.10;6.95;;;8.50;99.90;;;;;;2006802;29;20679;-71
2024/02/06 04:00:11;;;;;;;15.77;6.78;;;8.50;99.90;;;;;;2005358;29;21068;-71
2024/02/06 04:01:12;;;;;;;17.25;6.55;;;8.50;99.90;;;;;;2011240;29;20026;-71
2024/02/06 04:02:12;;;;;;;18.15;7.28;;;8.50;99.90;;;;;;2004516;29;20783;-71
2024/02/06 04:03:13;;;;;;;16.90;6.80;;;8.40;99.90;;;;;;1997846;29;20564;-70
2024/02/06 04:04:13;;;;;;;17.08;6.72;;;8.50;99.90;;;;;;2011284;29;20059;-71
2024/02/06 04:05:14;;;;;;;17.45;6.22;;;8.40;99.90;;;;;;2009174;29;20021;-70
2024/02/06 04:06:15;;;;;;;18.77;6.72;;;8.50;99.90;;;;;;2000495;29;20112;-70
2024/02/06 04:07:16;;;;;;;16.58;7.03;;;8.50;99.90;;;;;;2003905;29;20049;-70
2024/02/06 04:08:17;;;;;;;17.42;6.47;;;8.50;99.90;;;;;;2003908;29;20128;-70
2024/02/06 04:09:17;;;;;;;17.50;6.47;;;8.50;99.90;;;;;;2004349;29;20037;-70
2024/02/06 04:10:18;;;;;;;15.85;6.63;;;8.50;99.90;;;;;;1999302;29;20034;-70
2024/02/06 04:11:19;;;;;;;15.90;6.15;;;8.50;99.90;;;;;;2004123;29;20235;-70
2024/02/06 04:12:20;;;;;;;18.65;6.60;;;8.50;99.90;;;;;;2012988;29;20474;-70
2024/02/06 04:13:20;;;;;;;14.85;6.65;;;8.50;99.90;;;;;;2018606;29;20020;-71
2024/02/06 04:14:21;;;;;;;14.98;6.63;;;8.50;99.90;;;;;;2006828;29;20540;-71
2024/02/06 04:15:22;;;;;;;14.23;6.65;;;8.50;99.90;;;;;;2008703;29;20693;-70
2024/02/06 04:16:22;;;;;;;17.13;6.63;;;8.50;99.90;;;;;;2008306;29;20037;-70
2024/02/06 04:17:23;;;;;;;14.32;6.95;;;8.50;99.90;;;;;;2005952;29;20132;-70
2024/02/06 04:18:23;;;;;;;19.55;6.47;;;8.50;99.90;;;;;;2009117;29;20099;-71
2024/02/06 04:19:24;;;;;;;17.67;6.88;;;8.50;99.90;;;;;;2011540;29;20109;-71
2024/02/06 04:20:24;;;;;;;18.65;6.80;;;8.50;99.90;;;;;;2004353;29;20025;-70
2024/02/06 04:21:25;;;;;;;16.67;6.82;;;8.40;99.90;;;;;;2006423;29;20084;-70
2024/02/06 04:22:26;;;;;;;19.80;6.78;;;8.40;99.90;;;;;;2009018;29;20108;-70
2024/02/06 04:23:27;;;;;;;17.02;7.03;;;8.40;99.90;;;;;;2012483;29;20047;-70
2024/02/06 04:24:27;;;;;;;17.98;6.80;;;8.40;99.90;;;;;;2012546;29;20400;-70
2024/02/06 04:25:28;;;;;;;19.70;7.03;;;8.50;99.90;;;;;;2008279;29;20036;-71
2024/02/06 04:26:29;;;;;;;18.27;6.88;;;8.50;99.90;;;;;;2009230;29;20078;-70
2024/02/06 04:27:29;;;;;;;21.25;7.22;;;8.50;99.90;;;;;;2005629;29;20041;-70
2024/02/06 04:28:30;;;;;;;19.55;6.60;;;8.50;99.90;;;;;;2008953;29;20051;-70
2024/02/06 04:29:30;;;;;;;19.15;7.28;;;8.40;99.90;;;;;;2008697;29;20081;-70
2024/02/06 04:30:31;;;;;;;20.63;7.57;;;8.40;99.90;;;;;;2004427;29;20045;-70
2024/02/06 04:31:32;;;;;;;21.00;7.32;;;8.40;99.90;;;;;;1999821;29;20034;-70
2024/02/06 04:32:32;;;;;;;18.75;6.82;;;8.40;99.90;;;;;;2012029;29;20134;-70
2024/02/06 04:33:33;;;;;;;19.83;6.85;;;8.40;99.90;;;;;;2004844;29;20029;-70
2024/02/06 04:34:33;;;;;;;18.85;6.50;;;8.40;99.90;;;;;;2008855;29;20823;-70
2024/02/06 04:35:36;;;;;;;16.38;6.70;;;8.40;99.90;;;;;;2008642;29;20039;-70
2024/02/06 04:36:36;;;;;;;22.50;7.07;;;8.40;99.90;;;;;;2005001;29;20120;-70
2024/02/06 04:37:37;;;;;;;18.00;6.55;;;8.40;99.90;;;;;;2005143;29;20037;-70
2024/02/06 04:38:37;;;;;;;17.33;6.78;;;8.40;99.90;;;;;;2008720;29;20068;-70
2024/02/06 04:39:38;;;;;;;16.33;6.60;;;8.40;99.90;;;;;;2004939;29;20034;-69
2024/02/06 04:40:38;;;;;;;21.48;6.93;;;8.40;99.90;;;;;;2004909;29;20037;-70
2024/02/06 04:41:39;;;;;;;20.50;7.32;;;8.40;99.90;;;;;;2004125;29;20091;-69
2024/02/06 04:42:40;;;;;;;22.33;6.97;;;8.40;99.90;;;;;;2005107;29;20480;-69
2024/02/06 04:43:41;;;;;;;18.05;6.90;;;8.40;99.90;;;;;;2007718;29;20040;-70
2024/02/06 04:44:42;;;;;;;20.02;6.90;;;8.40;99.90;;;;;;2004888;29;20033;-70
2024/02/06 04:45:42;;;;;;;18.02;7.13;;;8.40;99.90;;;;;;2009339;29;20392;-70
2024/02/06 04:46:43;;;;;;;17.85;7.50;;;8.40;99.90;;;;;;2003809;29;20075;-70
2024/02/06 04:47:44;;;;;;;18.23;7.63;;;8.40;99.90;;;;;;2004189;29;20034;-70
2024/02/06 04:48:44;;;;;;;18.55;7.22;;;8.40;99.90;;;;;;2012475;29;20033;-70
2024/02/06 04:49:45;;;;;;;19.33;7.50;;;8.40;99.90;;;;;;2007855;29;20104;-70
2024/02/06 04:50:45;;;;;;;21.50;7.40;;;8.40;99.90;;;;;;2006873;29;20037;-70
2024/02/06 04:51:46;;;;;;;16.63;7.03;;;8.40;99.90;;;;;;2013478;29;20040;-70
2024/02/06 04:52:47;;;;;;;18.08;7.38;;;8.40;99.90;;;;;;2007991;29;20137;-70
2024/02/06 04:53:47;;;;;;;21.08;7.03;;;8.40;99.90;;;;;;2009174;29;20033;-70
2024/02/06 04:54:48;;;;;;;22.67;7.65;;;8.40;99.90;;;;;;1996154;29;20034;-70
2024/02/06 04:55:48;;;;;;;18.15;7.20;;;8.40;99.90;;;;;;2002412;29;20129;-72
2024/02/06 04:56:49;;;;;;;19.40;6.93;;;8.40;99.90;;;;;;2017831;29;20097;-70
2024/02/06 04:57:49;;;;;;;20.30;7.07;;;8.40;99.90;;;;;;2011029;29;20093;-69
2024/02/06 04:58:50;;;;;;;14.80;7.15;;;8.40;99.90;;;;;;2011968;29;20527;-71
2024/02/06 04:59:51;;;;;;;18.15;7.40;;;8.40;99.90;;;;;;2008765;29;20045;-70
2024/02/06 05:00:52;;;;;;;21.98;7.43;;;8.40;99.90;;;;;;2009156;29;20029;-71
2024/02/06 05:01:52;;;;;;;21.15;7.00;;;8.40;99.90;;;;;;2011450;29;20052;-70
2024/02/06 05:02:53;;;;;;;15.75;6.75;;;8.40;99.90;;;;;;2008137;29;20121;-71
2024/02/06 05:03:54;;;;;;;19.55;6.97;;;8.40;99.90;;;;;;2013447;29;20061;-73
2024/02/06 05:04:54;;;;;;;17.92;6.78;;;8.40;99.90;;;;;;2009154;29;20036;-71
2024/02/06 05:05:55;;;;;;;16.88;6.88;;;8.40;99.90;;;;;;2004070;29;20057;-71
2024/02/06 05:06:55;;;;;;;21.83;8.02;;;8.40;99.90;;;;;;2004573;29;20080;-71
2024/02/06 05:07:56;;;;;;;21.25;8.13;;;8.40;99.90;;;;;;2013433;29;20044;-71
2024/02/06 05:08:57;;;;;;;15.65;7.22;;;8.40;99.90;;;;;;2013743;29;20621;-70
2024/02/06 05:09:57;;;;;;;20.75;7.60;;;8.40;99.90;;;;;;2012547;29;20032;-69
2024/02/06 05:10:58;;;;;;;17.67;7.43;;;8.40;99.90;;;;;;2009879;29;20121;-71
2024/02/06 05:12:01;;;;;;;23.00;7.65;;;8.40;99.90;;;;;;2006550;29;20040;-71
2024/02/06 05:13:02;;;;;;;20.90;6.95;;;8.40;99.90;;;;;;2004657;29;20037;-72
2024/02/06 05:14:02;;;;;;;18.63;6.85;;;8.40;99.90;;;;;;2007421;29;20182;-72
2024/02/06 05:15:06;;;;;;;16.85;7.05;;;8.40;99.90;;;;;;2005749;29;20160;-71
2024/02/06 05:16:07;;;;;;;18.70;6.93;;;8.40;99.90;;;;;;2005162;29;20504;-70
2024/02/06 05:17:08;;;;;;;18.92;6.90;;;8.40;99.90;;;;;;2007250;29;20102;-71